Terminal Aerodrome Forecast
Issued by NWS

Home | Current Version | Previous Version | Text Only | Print | Product List | Glossary On
Versions: 1 2 3 4 5 6 7 8 9 10 11 12 13 14 15 16 17
000
FTAK31 PAJN 032300
TAFAJN
TAF
PAJN 032325Z 0400/0424 VRB05KT P6SM FEW010 OVC040
     FM040500 VRB02KT P6SM BKN040
     FM040900 00000KT 1SM BR BKN003
     FM041500 VRB03KT P6SM BCFG FEW005 SCT025
     FM041800 25007KT P6SM SCT030 SCT250=

USA.gov is the U.S. government's official web portal to all federal, state and local government web resources and services.